Terminal Aerodrome Forecast
Issued by NWS Grand Forks, ND

Home | Current Version | Previous Version | Text Only | Print | Product List | Glossary On
Versions: 1 2 3 4 5 6 7 8 9 10 11 12 13 14 15 16 17
495
FTUS43 KFGF 041120
TAFGFK
TAF
KGFK 041120Z 0412/0512 17012KT 5SM -SN OVC007
      TEMPO 0412/0413 2SM -SN BR OVC005
     FM041400 21011KT P6SM OVC008
     FM041700 25011KT P6SM BKN010 OVC025
     FM042300 26009KT P6SM BKN025
     FM050200 22006KT P6SM BKN045=

USA.gov is the U.S. government's official web portal to all federal, state and local government web resources and services.